sensor_id;sensor_type;location;lat;lon;timestamp;P1;durP1;ratioP1;P2;durP2;ratioP2
37277;SDS011;23167;53.574;9.612;2023-04-25T00:02:19;31.05;;;11.00;;
37277;SDS011;23167;53.574;9.612;2023-04-25T00:05:19;40.90;;;10.07;;
37277;SDS011;23167;53.574;9.612;2023-04-25T00:08:19;38.88;;;10.45;;
37277;SDS011;23167;53.574;9.612;2023-04-25T00:11:20;32.90;;;10.00;;
37277;SDS011;23167;53.574;9.612;2023-04-25T00:14:20;40.15;;;10.65;;
37277;SDS011;23167;53.574;9.612;2023-04-25T00:17:21;37.53;;;10.15;;
37277;SDS011;23167;53.574;9.612;2023-04-25T00:20:21;36.42;;;9.70;;
37277;SDS011;23167;53.574;9.612;2023-04-25T00:23:21;30.17;;;8.77;;
37277;SDS011;23167;53.574;9.612;2023-04-25T00:26:22;40.08;;;9.80;;
37277;SDS011;23167;53.574;9.612;2023-04-25T00:29:22;44.30;;;9.52;;
37277;SDS011;23167;53.574;9.612;2023-04-25T00:32:23;38.20;;;9.20;;
37277;SDS011;23167;53.574;9.612;2023-04-25T00:35:23;26.67;;;8.70;;
37277;SDS011;23167;53.574;9.612;2023-04-25T00:38:23;44.38;;;9.57;;
37277;SDS011;23167;53.574;9.612;2023-04-25T00:41:25;42.38;;;10.45;;
37277;SDS011;23167;53.574;9.612;2023-04-25T00:44:26;37.97;;;9.20;;
37277;SDS011;23167;53.574;9.612;2023-04-25T00:47:27;39.92;;;8.80;;
37277;SDS011;23167;53.574;9.612;2023-04-25T00:50:28;32.67;;;10.23;;
37277;SDS011;23167;53.574;9.612;2023-04-25T00:53:29;38.88;;;10.45;;
37277;SDS011;23167;53.574;9.612;2023-04-25T00:56:30;33.67;;;8.88;;
37277;SDS011;23167;53.574;9.612;2023-04-25T00:59:30;43.28;;;9.73;;
37277;SDS011;23167;53.574;9.612;2023-04-25T01:02:31;33.75;;;9.27;;
37277;SDS011;23167;53.574;9.612;2023-04-25T01:05:32;40.00;;;10.07;;
37277;SDS011;23167;53.574;9.612;2023-04-25T01:08:33;45.20;;;9.63;;
37277;SDS011;23167;53.574;9.612;2023-04-25T01:11:33;30.00;;;9.98;;
37277;SDS011;23167;53.574;9.612;2023-04-25T01:14:34;35.20;;;9.93;;
37277;SDS011;23167;53.574;9.612;2023-04-25T01:17:34;47.97;;;10.05;;
37277;SDS011;23167;53.574;9.612;2023-04-25T01:20:35;39.35;;;9.68;;
37277;SDS011;23167;53.574;9.612;2023-04-25T01:23:38;42.72;;;10.05;;
37277;SDS011;23167;53.574;9.612;2023-04-25T01:26:39;41.63;;;9.43;;
37277;SDS011;23167;53.574;9.612;2023-04-25T01:29:41;48.65;;;10.20;;
37277;SDS011;23167;53.574;9.612;2023-04-25T01:32:42;41.55;;;9.98;;
37277;SDS011;23167;53.574;9.612;2023-04-25T01:35:43;37.58;;;9.88;;
37277;SDS011;23167;53.574;9.612;2023-04-25T01:38:43;41.28;;;9.52;;
37277;SDS011;23167;53.574;9.612;2023-04-25T01:41:44;32.75;;;9.07;;
37277;SDS011;23167;53.574;9.612;2023-04-25T01:44:45;40.03;;;10.32;;
37277;SDS011;23167;53.574;9.612;2023-04-25T01:47:46;48.33;;;9.93;;
37277;SDS011;23167;53.574;9.612;2023-04-25T01:50:47;33.75;;;8.23;;
37277;SDS011;23167;53.574;9.612;2023-04-25T01:53:47;41.22;;;10.32;;
37277;SDS011;23167;53.574;9.612;2023-04-25T01:56:51;34.22;;;8.55;;
37277;SDS011;23167;53.574;9.612;2023-04-25T01:59:55;37.45;;;8.95;;
37277;SDS011;23167;53.574;9.612;2023-04-25T02:03:19;33.85;;;9.40;;
37277;SDS011;23167;53.574;9.612;2023-04-25T02:06:19;36.22;;;8.73;;
37277;SDS011;23167;53.574;9.612;2023-04-25T02:09:21;27.35;;;9.02;;
37277;SDS011;23167;53.574;9.612;2023-04-25T02:12:28;30.55;;;8.73;;
37277;SDS011;23167;53.574;9.612;2023-04-25T02:15:54;30.45;;;8.65;;
37277;SDS011;23167;53.574;9.612;2023-04-25T02:18:55;46.00;;;10.07;;
37277;SDS011;23167;53.574;9.612;2023-04-25T02:21:55;26.52;;;8.88;;
37277;SDS011;23167;53.574;9.612;2023-04-25T02:24:55;38.33;;;8.88;;
37277;SDS011;23167;53.574;9.612;2023-04-25T02:27:56;32.88;;;8.75;;
37277;SDS011;23167;53.574;9.612;2023-04-25T02:30:56;31.25;;;9.00;;
37277;SDS011;23167;53.574;9.612;2023-04-25T02:33:58;34.50;;;9.13;;
37277;SDS011;23167;53.574;9.612;2023-04-25T02:36:58;33.17;;;8.88;;
37277;SDS011;23167;53.574;9.612;2023-04-25T02:39:59;32.25;;;7.93;;
37277;SDS011;23167;53.574;9.612;2023-04-25T02:43:00;32.70;;;8.95;;
37277;SDS011;23167;53.574;9.612;2023-04-25T02:46:00;33.70;;;9.07;;
37277;SDS011;23167;53.574;9.612;2023-04-25T02:49:00;34.65;;;10.15;;
37277;SDS011;23167;53.574;9.612;2023-04-25T02:52:01;41.78;;;9.45;;
37277;SDS011;23167;53.574;9.612;2023-04-25T02:55:02;37.63;;;9.43;;
37277;SDS011;23167;53.574;9.612;2023-04-25T02:58:04;26.98;;;8.88;;
37277;SDS011;23167;53.574;9.612;2023-04-25T03:01:15;28.25;;;8.10;;
37277;SDS011;23167;53.574;9.612;2023-04-25T03:04:16;40.05;;;10.10;;
37277;SDS011;23167;53.574;9.612;2023-04-25T03:07:16;30.25;;;8.40;;
37277;SDS011;23167;53.574;9.612;2023-04-25T03:10:16;23.25;;;8.50;;
37277;SDS011;23167;53.574;9.612;2023-04-25T03:13:17;28.67;;;7.38;;
37277;SDS011;23167;53.574;9.612;2023-04-25T03:16:17;28.35;;;8.38;;
37277;SDS011;23167;53.574;9.612;2023-04-25T03:19:18;37.40;;;8.70;;
37277;SDS011;23167;53.574;9.612;2023-04-25T03:22:18;26.98;;;8.10;;
37277;SDS011;23167;53.574;9.612;2023-04-25T03:25:18;22.92;;;7.57;;
37277;SDS011;23167;53.574;9.612;2023-04-25T03:28:20;33.90;;;8.13;;
37277;SDS011;23167;53.574;9.612;2023-04-25T03:31:20;28.27;;;8.25;;
37277;SDS011;23167;53.574;9.612;2023-04-25T03:34:21;27.58;;;8.00;;
37277;SDS011;23167;53.574;9.612;2023-04-25T03:37:21;24.73;;;7.30;;
37277;SDS011;23167;53.574;9.612;2023-04-25T03:40:22;29.17;;;8.00;;
37277;SDS011;23167;53.574;9.612;2023-04-25T03:43:41;23.08;;;7.53;;
37277;SDS011;23167;53.574;9.612;2023-04-25T03:46:45;29.90;;;8.77;;
37277;SDS011;23167;53.574;9.612;2023-04-25T03:49:46;32.40;;;8.18;;
37277;SDS011;23167;53.574;9.612;2023-04-25T03:52:47;31.05;;;6.93;;
37277;SDS011;23167;53.574;9.612;2023-04-25T03:55:47;26.98;;;8.70;;
37277;SDS011;23167;53.574;9.612;2023-04-25T03:58:48;33.70;;;8.48;;
37277;SDS011;23167;53.574;9.612;2023-04-25T04:01:50;24.08;;;7.32;;
37277;SDS011;23167;53.574;9.612;2023-04-25T04:04:51;29.15;;;8.07;;
37277;SDS011;23167;53.574;9.612;2023-04-25T04:07:51;33.13;;;9.02;;
37277;SDS011;23167;53.574;9.612;2023-04-25T04:10:52;28.70;;;8.45;;
37277;SDS011;23167;53.574;9.612;2023-04-25T04:13:52;30.75;;;8.10;;
37277;SDS011;23167;53.574;9.612;2023-04-25T04:16:53;21.52;;;7.38;;
37277;SDS011;23167;53.574;9.612;2023-04-25T04:19:54;28.00;;;8.35;;
37277;SDS011;23167;53.574;9.612;2023-04-25T04:22:54;32.47;;;7.50;;
37277;SDS011;23167;53.574;9.612;2023-04-25T04:25:55;26.30;;;7.38;;
37277;SDS011;23167;53.574;9.612;2023-04-25T04:29:18;30.98;;;8.13;;
37277;SDS011;23167;53.574;9.612;2023-04-25T04:32:39;24.50;;;8.15;;
37277;SDS011;23167;53.574;9.612;2023-04-25T04:35:40;29.95;;;8.38;;
37277;SDS011;23167;53.574;9.612;2023-04-25T04:38:40;33.35;;;8.10;;
37277;SDS011;23167;53.574;9.612;2023-04-25T04:41:43;33.25;;;8.55;;
37277;SDS011;23167;53.574;9.612;2023-04-25T04:45:01;23.67;;;7.85;;
37277;SDS011;23167;53.574;9.612;2023-04-25T04:48:28;30.65;;;8.55;;
37277;SDS011;23167;53.574;9.612;2023-04-25T04:51:51;22.58;;;7.63;;
37277;SDS011;23167;53.574;9.612;2023-04-25T04:55:20;28.98;;;8.00;;
37277;SDS011;23167;53.574;9.612;2023-04-25T04:58:47;28.40;;;8.52;;
37277;SDS011;23167;53.574;9.612;2023-04-25T05:05:15;23.23;;;7.97;;
37277;SDS011;23167;53.574;9.612;2023-04-25T05:08:39;31.83;;;7.85;;
37277;SDS011;23167;53.574;9.612;2023-04-25T05:12:00;26.83;;;8.20;;
37277;SDS011;23167;53.574;9.612;2023-04-25T05:15:13;31.48;;;8.13;;
37277;SDS011;23167;53.574;9.612;2023-04-25T05:18:32;19.38;;;6.47;;
37277;SDS011;23167;53.574;9.612;2023-04-25T05:21:45;18.10;;;7.43;;
37277;SDS011;23167;53.574;9.612;2023-04-25T05:25:05;23.80;;;8.23;;
37277;SDS011;23167;53.574;9.612;2023-04-25T05:28:25;29.67;;;7.38;;
37277;SDS011;23167;53.574;9.612;2023-04-25T05:31:42;22.65;;;7.38;;
37277;SDS011;23167;53.574;9.612;2023-04-25T05:34:48;24.02;;;7.18;;
37277;SDS011;23167;53.574;9.612;2023-04-25T05:37:56;22.20;;;8.00;;
37277;SDS011;23167;53.574;9.612;2023-04-25T05:41:10;27.65;;;8.10;;
37277;SDS011;23167;53.574;9.612;2023-04-25T05:44:17;23.63;;;7.18;;
37277;SDS011;23167;53.574;9.612;2023-04-25T05:47:32;25.77;;;7.13;;
37277;SDS011;23167;53.574;9.612;2023-04-25T05:50:48;26.58;;;7.70;;
37277;SDS011;23167;53.574;9.612;2023-04-25T05:54:11;18.85;;;7.07;;
37277;SDS011;23167;53.574;9.612;2023-04-25T05:57:24;24.08;;;7.03;;
37277;SDS011;23167;53.574;9.612;2023-04-25T06:00:27;19.75;;;6.85;;
37277;SDS011;23167;53.574;9.612;2023-04-25T06:03:27;29.45;;;7.20;;
37277;SDS011;23167;53.574;9.612;2023-04-25T06:06:28;24.50;;;7.07;;
37277;SDS011;23167;53.574;9.612;2023-04-25T06:09:28;21.00;;;6.97;;
37277;SDS011;23167;53.574;9.612;2023-04-25T06:12:28;25.27;;;8.00;;
37277;SDS011;23167;53.574;9.612;2023-04-25T06:15:29;23.38;;;7.38;;
37277;SDS011;23167;53.574;9.612;2023-04-25T06:18:30;22.23;;;6.90;;
37277;SDS011;23167;53.574;9.612;2023-04-25T06:21:30;21.92;;;6.60;;
37277;SDS011;23167;53.574;9.612;2023-04-25T06:24:30;29.83;;;6.95;;
37277;SDS011;23167;53.574;9.612;2023-04-25T06:27:31;20.88;;;6.93;;
37277;SDS011;23167;53.574;9.612;2023-04-25T06:30:31;21.17;;;6.22;;
37277;SDS011;23167;53.574;9.612;2023-04-25T06:33:37;34.58;;;6.72;;
37277;SDS011;23167;53.574;9.612;2023-04-25T06:36:38;22.23;;;6.45;;
37277;SDS011;23167;53.574;9.612;2023-04-25T06:39:42;19.05;;;5.78;;
37277;SDS011;23167;53.574;9.612;2023-04-25T06:42:43;26.65;;;7.50;;
37277;SDS011;23167;53.574;9.612;2023-04-25T06:46:02;20.15;;;6.43;;
37277;SDS011;23167;53.574;9.612;2023-04-25T06:49:05;18.52;;;6.90;;
37277;SDS011;23167;53.574;9.612;2023-04-25T06:52:07;18.42;;;6.57;;
37277;SDS011;23167;53.574;9.612;2023-04-25T06:55:08;19.08;;;6.03;;
37277;SDS011;23167;53.574;9.612;2023-04-25T06:58:34;16.33;;;7.00;;
37277;SDS011;23167;53.574;9.612;2023-04-25T07:01:48;20.38;;;8.35;;
37277;SDS011;23167;53.574;9.612;2023-04-25T07:04:52;16.88;;;6.75;;
37277;SDS011;23167;53.574;9.612;2023-04-25T07:07:52;13.60;;;5.78;;
37277;SDS011;23167;53.574;9.612;2023-04-25T07:10:52;12.00;;;5.38;;
37277;SDS011;23167;53.574;9.612;2023-04-25T07:13:53;13.45;;;5.38;;
37277;SDS011;23167;53.574;9.612;2023-04-25T07:16:53;22.42;;;6.93;;
37277;SDS011;23167;53.574;9.612;2023-04-25T07:19:54;11.25;;;6.03;;
37277;SDS011;23167;53.574;9.612;2023-04-25T07:22:54;13.57;;;6.30;;
37277;SDS011;23167;53.574;9.612;2023-04-25T07:25:55;18.13;;;5.57;;
37277;SDS011;23167;53.574;9.612;2023-04-25T07:28:58;19.75;;;6.03;;
37277;SDS011;23167;53.574;9.612;2023-04-25T07:31:58;20.23;;;6.22;;
37277;SDS011;23167;53.574;9.612;2023-04-25T07:34:59;16.70;;;5.80;;
37277;SDS011;23167;53.574;9.612;2023-04-25T07:38:01;17.38;;;6.07;;
37277;SDS011;23167;53.574;9.612;2023-04-25T07:41:03;16.88;;;6.13;;
37277;SDS011;23167;53.574;9.612;2023-04-25T07:44:03;12.63;;;5.40;;
37277;SDS011;23167;53.574;9.612;2023-04-25T07:47:05;14.38;;;5.72;;
37277;SDS011;23167;53.574;9.612;2023-04-25T07:50:06;16.40;;;5.78;;
37277;SDS011;23167;53.574;9.612;2023-04-25T07:53:07;13.40;;;6.15;;
37277;SDS011;23167;53.574;9.612;2023-04-25T07:56:16;15.10;;;6.75;;
37277;SDS011;23167;53.574;9.612;2023-04-25T07:59:20;13.15;;;5.47;;
37277;SDS011;23167;53.574;9.612;2023-04-25T08:02:20;12.38;;;5.32;;
37277;SDS011;23167;53.574;9.612;2023-04-25T08:05:21;18.05;;;5.68;;
37277;SDS011;23167;53.574;9.612;2023-04-25T08:08:26;13.05;;;5.40;;
37277;SDS011;23167;53.574;9.612;2023-04-25T08:11:27;16.48;;;5.97;;
37277;SDS011;23167;53.574;9.612;2023-04-25T08:14:28;12.90;;;6.00;;
37277;SDS011;23167;53.574;9.612;2023-04-25T08:17:29;11.43;;;5.07;;
37277;SDS011;23167;53.574;9.612;2023-04-25T08:20:29;10.13;;;5.07;;
37277;SDS011;23167;53.574;9.612;2023-04-25T08:23:32;14.95;;;5.30;;
37277;SDS011;23167;53.574;9.612;2023-04-25T08:26:44;11.40;;;5.72;;
37277;SDS011;23167;53.574;9.612;2023-04-25T08:29:49;9.82;;;5.57;;
37277;SDS011;23167;53.574;9.612;2023-04-25T08:32:49;17.35;;;6.47;;
37277;SDS011;23167;53.574;9.612;2023-04-25T08:36:03;12.13;;;5.20;;
37277;SDS011;23167;53.574;9.612;2023-04-25T08:39:05;11.43;;;4.95;;
37277;SDS011;23167;53.574;9.612;2023-04-25T08:42:12;12.25;;;5.35;;
37277;SDS011;23167;53.574;9.612;2023-04-25T08:45:12;10.77;;;4.97;;
37277;SDS011;23167;53.574;9.612;2023-04-25T08:48:16;8.43;;;5.35;;
37277;SDS011;23167;53.574;9.612;2023-04-25T08:51:23;13.00;;;4.50;;
37277;SDS011;23167;53.574;9.612;2023-04-25T08:54:24;7.88;;;5.22;;
37277;SDS011;23167;53.574;9.612;2023-04-25T08:57:27;12.93;;;5.07;;
37277;SDS011;23167;53.574;9.612;2023-04-25T09:00:27;14.95;;;5.25;;
37277;SDS011;23167;53.574;9.612;2023-04-25T09:03:30;18.52;;;5.63;;
37277;SDS011;23167;53.574;9.612;2023-04-25T09:06:32;15.52;;;5.63;;
37277;SDS011;23167;53.574;9.612;2023-04-25T09:09:33;10.20;;;5.30;;
37277;SDS011;23167;53.574;9.612;2023-04-25T09:12:33;12.73;;;5.43;;
37277;SDS011;23167;53.574;9.612;2023-04-25T09:15:46;14.32;;;5.82;;
37277;SDS011;23167;53.574;9.612;2023-04-25T09:19:30;11.63;;;5.10;;
37277;SDS011;23167;53.574;9.612;2023-04-25T09:22:34;12.07;;;4.97;;
37277;SDS011;23167;53.574;9.612;2023-04-25T09:25:35;16.95;;;5.90;;
37277;SDS011;23167;53.574;9.612;2023-04-25T09:28:37;10.38;;;5.07;;
37277;SDS011;23167;53.574;9.612;2023-04-25T09:31:38;14.75;;;5.97;;
37277;SDS011;23167;53.574;9.612;2023-04-25T09:34:41;13.05;;;5.72;;
37277;SDS011;23167;53.574;9.612;2023-04-25T09:37:43;13.93;;;5.95;;
37277;SDS011;23167;53.574;9.612;2023-04-25T09:41:12;11.82;;;5.03;;
37277;SDS011;23167;53.574;9.612;2023-04-25T09:44:19;14.00;;;5.22;;
37277;SDS011;23167;53.574;9.612;2023-04-25T09:47:24;16.13;;;5.68;;
37277;SDS011;23167;53.574;9.612;2023-04-25T09:50:25;16.10;;;6.28;;
37277;SDS011;23167;53.574;9.612;2023-04-25T09:53:37;18.63;;;6.15;;
37277;SDS011;23167;53.574;9.612;2023-04-25T09:56:53;13.18;;;6.32;;
37277;SDS011;23167;53.574;9.612;2023-04-25T09:59:54;13.23;;;6.10;;
37277;SDS011;23167;53.574;9.612;2023-04-25T10:02:55;15.80;;;5.22;;
37277;SDS011;23167;53.574;9.612;2023-04-25T10:06:21;15.30;;;5.20;;
37277;SDS011;23167;53.574;9.612;2023-04-25T10:09:25;10.32;;;4.68;;
37277;SDS011;23167;53.574;9.612;2023-04-25T10:12:26;7.57;;;4.20;;
37277;SDS011;23167;53.574;9.612;2023-04-25T10:15:26;7.40;;;4.20;;
37277;SDS011;23167;53.574;9.612;2023-04-25T10:18:28;7.03;;;4.30;;
37277;SDS011;23167;53.574;9.612;2023-04-25T10:21:29;6.38;;;4.43;;
37277;SDS011;23167;53.574;9.612;2023-04-25T10:24:31;17.92;;;5.80;;
37277;SDS011;23167;53.574;9.612;2023-04-25T10:27:32;10.38;;;4.82;;
37277;SDS011;23167;53.574;9.612;2023-04-25T10:30:32;14.80;;;4.88;;
37277;SDS011;23167;53.574;9.612;2023-04-25T10:33:33;20.52;;;5.55;;
37277;SDS011;23167;53.574;9.612;2023-04-25T10:36:34;20.17;;;5.40;;
37277;SDS011;23167;53.574;9.612;2023-04-25T10:39:34;13.23;;;5.13;;
37277;SDS011;23167;53.574;9.612;2023-04-25T10:42:35;18.35;;;6.05;;
37277;SDS011;23167;53.574;9.612;2023-04-25T10:45:50;16.85;;;5.50;;
37277;SDS011;23167;53.574;9.612;2023-04-25T10:48:52;15.05;;;5.32;;
37277;SDS011;23167;53.574;9.612;2023-04-25T10:52:16;8.73;;;4.60;;
37277;SDS011;23167;53.574;9.612;2023-04-25T10:55:22;15.32;;;4.90;;
37277;SDS011;23167;53.574;9.612;2023-04-25T10:58:23;15.40;;;5.07;;
37277;SDS011;23167;53.574;9.612;2023-04-25T11:01:24;11.63;;;5.32;;
37277;SDS011;23167;53.574;9.612;2023-04-25T11:04:31;10.88;;;5.25;;
37277;SDS011;23167;53.574;9.612;2023-04-25T11:10:44;9.80;;;4.90;;
37277;SDS011;23167;53.574;9.612;2023-04-25T11:13:48;10.00;;;4.80;;
37277;SDS011;23167;53.574;9.612;2023-04-25T11:16:53;7.03;;;4.05;;
37277;SDS011;23167;53.574;9.612;2023-04-25T11:19:53;7.10;;;3.97;;
37277;SDS011;23167;53.574;9.612;2023-04-25T11:22:54;8.30;;;5.20;;
37277;SDS011;23167;53.574;9.612;2023-04-25T11:25:57;8.68;;;4.50;;
37277;SDS011;23167;53.574;9.612;2023-04-25T11:28:58;14.63;;;7.07;;
37277;SDS011;23167;53.574;9.612;2023-04-25T11:31:59;19.70;;;6.47;;
37277;SDS011;23167;53.574;9.612;2023-04-25T11:34:59;12.02;;;5.28;;
37277;SDS011;23167;53.574;9.612;2023-04-25T11:38:00;15.00;;;5.60;;
37277;SDS011;23167;53.574;9.612;2023-04-25T11:41:01;12.77;;;5.45;;
37277;SDS011;23167;53.574;9.612;2023-04-25T11:44:01;15.40;;;5.35;;
37277;SDS011;23167;53.574;9.612;2023-04-25T11:47:02;10.50;;;4.80;;
37277;SDS011;23167;53.574;9.612;2023-04-25T11:50:03;10.68;;;4.38;;
37277;SDS011;23167;53.574;9.612;2023-04-25T11:53:05;12.82;;;4.93;;
37277;SDS011;23167;53.574;9.612;2023-04-25T11:56:08;8.98;;;4.90;;
37277;SDS011;23167;53.574;9.612;2023-04-25T11:59:09;11.50;;;4.63;;
37277;SDS011;23167;53.574;9.612;2023-04-25T12:02:23;14.15;;;5.10;;
37277;SDS011;23167;53.574;9.612;2023-04-25T12:05:28;13.52;;;4.93;;
37277;SDS011;23167;53.574;9.612;2023-04-25T12:08:30;16.02;;;4.88;;
37277;SDS011;23167;53.574;9.612;2023-04-25T12:11:30;18.30;;;5.85;;
37277;SDS011;23167;53.574;9.612;2023-04-25T12:14:31;10.43;;;5.25;;
37277;SDS011;23167;53.574;9.612;2023-04-25T12:17:33;9.40;;;5.68;;
37277;SDS011;23167;53.574;9.612;2023-04-25T12:20:33;10.13;;;5.63;;
37277;SDS011;23167;53.574;9.612;2023-04-25T12:23:33;9.55;;;4.72;;
37277;SDS011;23167;53.574;9.612;2023-04-25T12:26:50;9.23;;;4.53;;
37277;SDS011;23167;53.574;9.612;2023-04-25T12:29:54;6.20;;;4.40;;
37277;SDS011;23167;53.574;9.612;2023-04-25T12:32:55;8.80;;;4.32;;
37277;SDS011;23167;53.574;9.612;2023-04-25T12:35:55;7.78;;;4.80;;
37277;SDS011;23167;53.574;9.612;2023-04-25T12:38:56;7.05;;;4.57;;
37277;SDS011;23167;53.574;9.612;2023-04-25T12:41:56;11.32;;;4.85;;
37277;SDS011;23167;53.574;9.612;2023-04-25T12:44:56;14.43;;;5.45;;
37277;SDS011;23167;53.574;9.612;2023-04-25T12:47:57;9.30;;;4.78;;
37277;SDS011;23167;53.574;9.612;2023-04-25T12:50:57;12.88;;;4.97;;
37277;SDS011;23167;53.574;9.612;2023-04-25T12:53:58;14.63;;;5.25;;
37277;SDS011;23167;53.574;9.612;2023-04-25T12:56:59;9.65;;;4.60;;
37277;SDS011;23167;53.574;9.612;2023-04-25T12:59:59;12.90;;;4.80;;
37277;SDS011;23167;53.574;9.612;2023-04-25T13:02:59;10.73;;;4.50;;
37277;SDS011;23167;53.574;9.612;2023-04-25T13:06:00;9.55;;;4.57;;
37277;SDS011;23167;53.574;9.612;2023-04-25T13:09:00;11.82;;;5.25;;
37277;SDS011;23167;53.574;9.612;2023-04-25T13:12:00;12.32;;;4.70;;
37277;SDS011;23167;53.574;9.612;2023-04-25T13:15:01;12.30;;;5.15;;
37277;SDS011;23167;53.574;9.612;2023-04-25T13:18:02;9.45;;;4.70;;
37277;SDS011;23167;53.574;9.612;2023-04-25T13:21:03;8.88;;;5.35;;
37277;SDS011;23167;53.574;9.612;2023-04-25T13:24:04;10.45;;;5.00;;
37277;SDS011;23167;53.574;9.612;2023-04-25T13:27:04;15.23;;;5.20;;
37277;SDS011;23167;53.574;9.612;2023-04-25T13:30:05;14.27;;;5.40;;
37277;SDS011;23167;53.574;9.612;2023-04-25T13:33:06;12.48;;;5.40;;
37277;SDS011;23167;53.574;9.612;2023-04-25T13:36:06;11.60;;;4.60;;
37277;SDS011;23167;53.574;9.612;2023-04-25T13:39:06;11.45;;;4.85;;
37277;SDS011;23167;53.574;9.612;2023-04-25T13:42:07;14.30;;;4.97;;
37277;SDS011;23167;53.574;9.612;2023-04-25T13:45:07;11.23;;;5.13;;
37277;SDS011;23167;53.574;9.612;2023-04-25T13:48:08;11.75;;;5.50;;
37277;SDS011;23167;53.574;9.612;2023-04-25T13:51:08;14.80;;;5.28;;
37277;SDS011;23167;53.574;9.612;2023-04-25T13:54:08;13.52;;;5.53;;
37277;SDS011;23167;53.574;9.612;2023-04-25T13:57:09;12.32;;;5.05;;
37277;SDS011;23167;53.574;9.612;2023-04-25T14:00:09;20.38;;;7.35;;
37277;SDS011;23167;53.574;9.612;2023-04-25T14:03:10;23.33;;;9.40;;
37277;SDS011;23167;53.574;9.612;2023-04-25T14:06:10;18.98;;;6.30;;
37277;SDS011;23167;53.574;9.612;2023-04-25T14:09:11;14.23;;;6.20;;
37277;SDS011;23167;53.574;9.612;2023-04-25T14:12:11;10.98;;;5.15;;
37277;SDS011;23167;53.574;9.612;2023-04-25T14:15:12;10.88;;;5.57;;
37277;SDS011;23167;53.574;9.612;2023-04-25T14:18:12;7.32;;;5.53;;
37277;SDS011;23167;53.574;9.612;2023-04-25T14:21:12;23.15;;;6.68;;
37277;SDS011;23167;53.574;9.612;2023-04-25T14:24:13;14.52;;;5.90;;
37277;SDS011;23167;53.574;9.612;2023-04-25T14:27:13;15.13;;;6.07;;
37277;SDS011;23167;53.574;9.612;2023-04-25T14:30:14;10.07;;;5.90;;
37277;SDS011;23167;53.574;9.612;2023-04-25T14:33:14;15.32;;;5.45;;
37277;SDS011;23167;53.574;9.612;2023-04-25T14:36:14;10.20;;;4.90;;
37277;SDS011;23167;53.574;9.612;2023-04-25T14:39:15;7.35;;;5.00;;
37277;SDS011;23167;53.574;9.612;2023-04-25T14:44:00;12.68;;;5.68;;
37277;SDS011;23167;53.574;9.612;2023-04-25T14:47:00;12.32;;;5.25;;
37277;SDS011;23167;53.574;9.612;2023-04-25T14:50:01;14.95;;;5.32;;
37277;SDS011;23167;53.574;9.612;2023-04-25T14:53:02;14.05;;;5.50;;
37277;SDS011;23167;53.574;9.612;2023-04-25T14:56:02;8.55;;;4.05;;
37277;SDS011;23167;53.574;9.612;2023-04-25T14:59:03;7.97;;;4.88;;
37277;SDS011;23167;53.574;9.612;2023-04-25T15:02:03;6.57;;;4.40;;
37277;SDS011;23167;53.574;9.612;2023-04-25T15:05:04;17.55;;;5.13;;
37277;SDS011;23167;53.574;9.612;2023-04-25T15:08:04;12.45;;;5.53;;
37277;SDS011;23167;53.574;9.612;2023-04-25T15:11:05;11.20;;;5.07;;
37277;SDS011;23167;53.574;9.612;2023-04-25T15:14:05;11.63;;;5.13;;
37277;SDS011;23167;53.574;9.612;2023-04-25T15:17:05;10.73;;;5.38;;
37277;SDS011;23167;53.574;9.612;2023-04-25T15:20:06;11.10;;;5.03;;
37277;SDS011;23167;53.574;9.612;2023-04-25T15:23:07;9.30;;;4.95;;
37277;SDS011;23167;53.574;9.612;2023-04-25T15:26:07;7.90;;;4.60;;
37277;SDS011;23167;53.574;9.612;2023-04-25T15:29:08;14.85;;;4.45;;
37277;SDS011;23167;53.574;9.612;2023-04-25T15:32:08;20.52;;;4.97;;
37277;SDS011;23167;53.574;9.612;2023-04-25T15:35:09;9.05;;;5.40;;
37277;SDS011;23167;53.574;9.612;2023-04-25T15:38:09;16.77;;;5.78;;
37277;SDS011;23167;53.574;9.612;2023-04-25T15:41:10;15.38;;;5.07;;
37277;SDS011;23167;53.574;9.612;2023-04-25T15:44:10;16.95;;;5.40;;
37277;SDS011;23167;53.574;9.612;2023-04-25T15:47:10;15.80;;;5.57;;
37277;SDS011;23167;53.574;9.612;2023-04-25T15:50:11;13.38;;;5.50;;
37277;SDS011;23167;53.574;9.612;2023-04-25T15:53:12;13.13;;;5.35;;
37277;SDS011;23167;53.574;9.612;2023-04-25T15:56:12;11.10;;;5.00;;
37277;SDS011;23167;53.574;9.612;2023-04-25T15:59:12;10.95;;;5.25;;
37277;SDS011;23167;53.574;9.612;2023-04-25T16:02:13;10.27;;;5.22;;
37277;SDS011;23167;53.574;9.612;2023-04-25T16:05:13;10.02;;;4.47;;
37277;SDS011;23167;53.574;9.612;2023-04-25T16:08:14;9.27;;;4.38;;
37277;SDS011;23167;53.574;9.612;2023-04-25T16:11:14;11.13;;;4.43;;
37277;SDS011;23167;53.574;9.612;2023-04-25T16:14:14;5.93;;;4.20;;
37277;SDS011;23167;53.574;9.612;2023-04-25T16:17:15;9.32;;;4.35;;
37277;SDS011;23167;53.574;9.612;2023-04-25T16:20:15;10.57;;;5.07;;
37277;SDS011;23167;53.574;9.612;2023-04-25T16:23:15;14.02;;;4.93;;
37277;SDS011;23167;53.574;9.612;2023-04-25T16:26:16;10.60;;;4.45;;
37277;SDS011;23167;53.574;9.612;2023-04-25T16:29:16;9.82;;;4.78;;
37277;SDS011;23167;53.574;9.612;2023-04-25T16:32:17;10.75;;;5.13;;
37277;SDS011;23167;53.574;9.612;2023-04-25T16:35:17;9.02;;;5.13;;
37277;SDS011;23167;53.574;9.612;2023-04-25T16:38:18;13.73;;;5.78;;
37277;SDS011;23167;53.574;9.612;2023-04-25T16:41:18;17.90;;;5.30;;
37277;SDS011;23167;53.574;9.612;2023-04-25T16:44:18;13.57;;;4.70;;
37277;SDS011;23167;53.574;9.612;2023-04-25T16:47:19;13.52;;;4.95;;
37277;SDS011;23167;53.574;9.612;2023-04-25T16:50:19;21.85;;;5.85;;
37277;SDS011;23167;53.574;9.612;2023-04-25T16:53:20;8.57;;;4.90;;
37277;SDS011;23167;53.574;9.612;2023-04-25T16:56:20;13.82;;;5.25;;
37277;SDS011;23167;53.574;9.612;2023-04-25T16:59:21;20.00;;;5.10;;
37277;SDS011;23167;53.574;9.612;2023-04-25T17:02:21;16.95;;;6.18;;
37277;SDS011;23167;53.574;9.612;2023-04-25T17:05:23;17.17;;;5.10;;
37277;SDS011;23167;53.574;9.612;2023-04-25T17:08:23;12.93;;;5.10;;
37277;SDS011;23167;53.574;9.612;2023-04-25T17:11:23;8.48;;;4.82;;
37277;SDS011;23167;53.574;9.612;2023-04-25T17:14:24;21.05;;;5.45;;
37277;SDS011;23167;53.574;9.612;2023-04-25T17:17:25;11.65;;;5.72;;
37277;SDS011;23167;53.574;9.612;2023-04-25T17:20:26;11.07;;;5.20;;
37277;SDS011;23167;53.574;9.612;2023-04-25T17:23:26;16.08;;;4.90;;
37277;SDS011;23167;53.574;9.612;2023-04-25T17:26:26;11.30;;;5.38;;
37277;SDS011;23167;53.574;9.612;2023-04-25T17:29:27;11.25;;;5.20;;
37277;SDS011;23167;53.574;9.612;2023-04-25T17:32:27;17.00;;;5.50;;
37277;SDS011;23167;53.574;9.612;2023-04-25T17:35:27;17.02;;;5.78;;
37277;SDS011;23167;53.574;9.612;2023-04-25T17:38:28;8.80;;;4.75;;
37277;SDS011;23167;53.574;9.612;2023-04-25T17:44:03;10.13;;;4.80;;
37277;SDS011;23167;53.574;9.612;2023-04-25T17:49:04;7.10;;;4.35;;
37277;SDS011;23167;53.574;9.612;2023-04-25T17:54:04;7.83;;;4.17;;
37277;SDS011;23167;53.574;9.612;2023-04-25T17:59:04;6.93;;;4.00;;
37277;SDS011;23167;53.574;9.612;2023-04-25T18:04:05;7.10;;;4.70;;
37277;SDS011;23167;53.574;9.612;2023-04-25T18:09:05;20.63;;;6.00;;
37277;SDS011;23167;53.574;9.612;2023-04-25T18:14:06;11.68;;;5.38;;
37277;SDS011;23167;53.574;9.612;2023-04-25T18:19:06;17.27;;;5.97;;
37277;SDS011;23167;53.574;9.612;2023-04-25T18:24:07;9.40;;;5.20;;
37277;SDS011;23167;53.574;9.612;2023-04-25T18:29:08;17.05;;;5.50;;
37277;SDS011;23167;53.574;9.612;2023-04-25T18:34:09;15.18;;;5.72;;
37277;SDS011;23167;53.574;9.612;2023-04-25T18:39:10;14.73;;;5.32;;
37277;SDS011;23167;53.574;9.612;2023-04-25T18:44:10;12.57;;;5.10;;